sensor_id;sensor_type;location;lat;lon;timestamp;temperature;humidity
13251;DHT22;6692;50.710;7.180;2023-05-07T00:01:02;14.70;99.90
13251;DHT22;6692;50.710;7.180;2023-05-07T00:03:03;14.70;99.90
13251;DHT22;6692;50.710;7.180;2023-05-07T00:05:04;14.70;99.90
13251;DHT22;6692;50.710;7.180;2023-05-07T00:07:06;14.70;99.90
13251;DHT22;6692;50.710;7.180;2023-05-07T00:09:08;14.70;99.90
13251;DHT22;6692;50.710;7.180;2023-05-07T00:11:08;14.70;99.90
13251;DHT22;6692;50.710;7.180;2023-05-07T00:13:09;14.70;99.90
13251;DHT22;6692;50.710;7.180;2023-05-07T00:15:10;14.70;99.90
13251;DHT22;6692;50.710;7.180;2023-05-07T00:17:10;14.70;99.90
13251;DHT22;6692;50.710;7.180;2023-05-07T00:19:11;14.70;99.90
13251;DHT22;6692;50.710;7.180;2023-05-07T00:21:13;14.70;99.90
13251;DHT22;6692;50.710;7.180;2023-05-07T00:23:14;14.70;99.90
13251;DHT22;6692;50.710;7.180;2023-05-07T00:25:15;14.70;99.90
13251;DHT22;6692;50.710;7.180;2023-05-07T00:27:16;14.70;99.90
13251;DHT22;6692;50.710;7.180;2023-05-07T00:29:16;14.70;99.90
13251;DHT22;6692;50.710;7.180;2023-05-07T00:31:17;14.80;99.90
13251;DHT22;6692;50.710;7.180;2023-05-07T00:33:18;14.80;99.90
13251;DHT22;6692;50.710;7.180;2023-05-07T00:35:18;14.80;99.90
13251;DHT22;6692;50.710;7.180;2023-05-07T00:37:19;14.80;99.90
13251;DHT22;6692;50.710;7.180;2023-05-07T00:39:20;14.80;99.90
13251;DHT22;6692;50.710;7.180;2023-05-07T00:41:20;14.80;99.90
13251;DHT22;6692;50.710;7.180;2023-05-07T00:43:22;14.80;99.90
13251;DHT22;6692;50.710;7.180;2023-05-07T00:45:22;14.80;99.90
13251;DHT22;6692;50.710;7.180;2023-05-07T00:47:24;14.80;99.90
13251;DHT22;6692;50.710;7.180;2023-05-07T00:49:26;14.80;99.90
13251;DHT22;6692;50.710;7.180;2023-05-07T00:51:26;14.80;99.90
13251;DHT22;6692;50.710;7.180;2023-05-07T00:53:28;14.80;99.90
13251;DHT22;6692;50.710;7.180;2023-05-07T00:55:28;14.80;99.90
13251;DHT22;6692;50.710;7.180;2023-05-07T00:57:29;14.90;99.90
13251;DHT22;6692;50.710;7.180;2023-05-07T00:59:30;14.90;99.90
13251;DHT22;6692;50.710;7.180;2023-05-07T01:01:31;14.90;99.90
13251;DHT22;6692;50.710;7.180;2023-05-07T01:03:31;14.90;99.90
13251;DHT22;6692;50.710;7.180;2023-05-07T01:05:32;14.90;99.90
13251;DHT22;6692;50.710;7.180;2023-05-07T01:07:33;14.90;99.90
13251;DHT22;6692;50.710;7.180;2023-05-07T01:09:33;14.90;99.90
13251;DHT22;6692;50.710;7.180;2023-05-07T01:11:34;14.90;99.90
13251;DHT22;6692;50.710;7.180;2023-05-07T01:13:35;14.90;99.90
13251;DHT22;6692;50.710;7.180;2023-05-07T01:15:36;14.90;99.90
13251;DHT22;6692;50.710;7.180;2023-05-07T01:17:37;14.90;99.90
13251;DHT22;6692;50.710;7.180;2023-05-07T01:19:37;14.90;99.90
13251;DHT22;6692;50.710;7.180;2023-05-07T01:21:39;14.90;99.90
13251;DHT22;6692;50.710;7.180;2023-05-07T01:23:39;14.80;99.90
13251;DHT22;6692;50.710;7.180;2023-05-07T01:25:40;14.90;99.90
13251;DHT22;6692;50.710;7.180;2023-05-07T01:27:41;14.90;99.90
13251;DHT22;6692;50.710;7.180;2023-05-07T01:29:42;14.90;99.90
13251;DHT22;6692;50.710;7.180;2023-05-07T01:31:43;14.90;99.90
13251;DHT22;6692;50.710;7.180;2023-05-07T01:33:43;14.90;99.90
13251;DHT22;6692;50.710;7.180;2023-05-07T01:35:45;14.90;99.90
13251;DHT22;6692;50.710;7.180;2023-05-07T01:37:46;14.90;99.90
13251;DHT22;6692;50.710;7.180;2023-05-07T01:39:46;14.90;99.90
13251;DHT22;6692;50.710;7.180;2023-05-07T01:41:47;14.90;99.90
13251;DHT22;6692;50.710;7.180;2023-05-07T01:43:50;14.90;99.90
13251;DHT22;6692;50.710;7.180;2023-05-07T01:45:48;14.90;99.90
13251;DHT22;6692;50.710;7.180;2023-05-07T01:47:49;14.90;99.90
13251;DHT22;6692;50.710;7.180;2023-05-07T01:49:50;14.90;99.90
13251;DHT22;6692;50.710;7.180;2023-05-07T01:51:50;14.90;99.90
13251;DHT22;6692;50.710;7.180;2023-05-07T01:53:51;14.90;99.90
13251;DHT22;6692;50.710;7.180;2023-05-07T01:55:51;14.90;99.90
13251;DHT22;6692;50.710;7.180;2023-05-07T01:57:52;14.90;99.90
13251;DHT22;6692;50.710;7.180;2023-05-07T01:59:53;14.90;99.90
13251;DHT22;6692;50.710;7.180;2023-05-07T02:01:53;14.90;99.90
13251;DHT22;6692;50.710;7.180;2023-05-07T02:03:54;14.90;99.90
13251;DHT22;6692;50.710;7.180;2023-05-07T02:05:55;14.90;99.90
13251;DHT22;6692;50.710;7.180;2023-05-07T02:07:55;14.90;99.90
13251;DHT22;6692;50.710;7.180;2023-05-07T02:09:56;15.00;99.90
13251;DHT22;6692;50.710;7.180;2023-05-07T02:11:57;14.90;99.90
13251;DHT22;6692;50.710;7.180;2023-05-07T02:13:57;14.90;99.90
13251;DHT22;6692;50.710;7.180;2023-05-07T02:15:58;14.90;99.90
13251;DHT22;6692;50.710;7.180;2023-05-07T02:18:00;14.90;99.90
13251;DHT22;6692;50.710;7.180;2023-05-07T02:20:01;14.90;99.90
13251;DHT22;6692;50.710;7.180;2023-05-07T02:22:02;14.90;99.90
13251;DHT22;6692;50.710;7.180;2023-05-07T02:24:03;14.90;99.90
13251;DHT22;6692;50.710;7.180;2023-05-07T02:26:04;15.00;99.90
13251;DHT22;6692;50.710;7.180;2023-05-07T02:28:05;14.90;99.90
13251;DHT22;6692;50.710;7.180;2023-05-07T02:30:06;14.90;99.90
13251;DHT22;6692;50.710;7.180;2023-05-07T02:32:07;15.00;99.90
13251;DHT22;6692;50.710;7.180;2023-05-07T02:34:08;14.90;99.90
13251;DHT22;6692;50.710;7.180;2023-05-07T02:36:09;14.90;99.90
13251;DHT22;6692;50.710;7.180;2023-05-07T02:38:10;14.90;99.90
13251;DHT22;6692;50.710;7.180;2023-05-07T02:40:11;15.00;99.90
13251;DHT22;6692;50.710;7.180;2023-05-07T02:42:12;14.90;99.90
13251;DHT22;6692;50.710;7.180;2023-05-07T02:44:13;15.00;99.90
13251;DHT22;6692;50.710;7.180;2023-05-07T02:46:13;14.90;99.90
13251;DHT22;6692;50.710;7.180;2023-05-07T02:48:14;14.90;99.90
13251;DHT22;6692;50.710;7.180;2023-05-07T02:50:15;15.00;99.90
13251;DHT22;6692;50.710;7.180;2023-05-07T02:52:15;14.90;99.90
13251;DHT22;6692;50.710;7.180;2023-05-07T02:54:16;14.90;99.90
13251;DHT22;6692;50.710;7.180;2023-05-07T02:56:17;14.90;99.90
13251;DHT22;6692;50.710;7.180;2023-05-07T02:58:18;14.80;99.90
13251;DHT22;6692;50.710;7.180;2023-05-07T03:00:20;14.80;99.90
13251;DHT22;6692;50.710;7.180;2023-05-07T03:02:20;14.80;99.90
13251;DHT22;6692;50.710;7.180;2023-05-07T03:04:22;14.70;99.90
13251;DHT22;6692;50.710;7.180;2023-05-07T03:06:23;14.70;99.90
13251;DHT22;6692;50.710;7.180;2023-05-07T03:08:24;14.70;99.90
13251;DHT22;6692;50.710;7.180;2023-05-07T03:10:25;14.70;99.90
13251;DHT22;6692;50.710;7.180;2023-05-07T03:12:25;14.70;99.90
13251;DHT22;6692;50.710;7.180;2023-05-07T03:14:26;14.60;99.90
13251;DHT22;6692;50.710;7.180;2023-05-07T03:16:27;14.60;99.90
13251;DHT22;6692;50.710;7.180;2023-05-07T03:18:27;14.60;99.90
13251;DHT22;6692;50.710;7.180;2023-05-07T03:20:28;14.60;99.90
13251;DHT22;6692;50.710;7.180;2023-05-07T03:22:29;14.50;99.90
13251;DHT22;6692;50.710;7.180;2023-05-07T03:24:30;14.60;99.90
13251;DHT22;6692;50.710;7.180;2023-05-07T03:26:31;14.50;99.90
13251;DHT22;6692;50.710;7.180;2023-05-07T03:28:31;14.60;99.90
13251;DHT22;6692;50.710;7.180;2023-05-07T03:30:32;14.60;99.90
13251;DHT22;6692;50.710;7.180;2023-05-07T03:32:33;14.60;99.90
13251;DHT22;6692;50.710;7.180;2023-05-07T03:34:33;14.60;99.90
13251;DHT22;6692;50.710;7.180;2023-05-07T03:36:35;14.60;99.90
13251;DHT22;6692;50.710;7.180;2023-05-07T03:38:35;14.60;99.90
13251;DHT22;6692;50.710;7.180;2023-05-07T03:40:36;14.60;99.90
13251;DHT22;6692;50.710;7.180;2023-05-07T03:42:37;14.70;99.90
13251;DHT22;6692;50.710;7.180;2023-05-07T03:44:37;14.70;99.90
13251;DHT22;6692;50.710;7.180;2023-05-07T03:46:39;14.70;99.90
13251;DHT22;6692;50.710;7.180;2023-05-07T03:48:40;14.70;99.90
13251;DHT22;6692;50.710;7.180;2023-05-07T03:50:40;14.70;99.90
13251;DHT22;6692;50.710;7.180;2023-05-07T03:52:41;14.70;99.90
13251;DHT22;6692;50.710;7.180;2023-05-07T03:54:42;14.70;99.90
13251;DHT22;6692;50.710;7.180;2023-05-07T03:56:42;14.60;99.90
13251;DHT22;6692;50.710;7.180;2023-05-07T03:58:43;14.60;99.90
13251;DHT22;6692;50.710;7.180;2023-05-07T04:00:44;14.60;99.90
13251;DHT22;6692;50.710;7.180;2023-05-07T04:02:45;14.70;99.90
13251;DHT22;6692;50.710;7.180;2023-05-07T04:04:47;14.70;99.90
13251;DHT22;6692;50.710;7.180;2023-05-07T04:06:46;14.60;99.90
13251;DHT22;6692;50.710;7.180;2023-05-07T04:08:47;14.60;99.90
13251;DHT22;6692;50.710;7.180;2023-05-07T04:10:48;14.70;99.90
13251;DHT22;6692;50.710;7.180;2023-05-07T04:12:48;14.60;99.90
13251;DHT22;6692;50.710;7.180;2023-05-07T04:14:49;14.70;99.90
13251;DHT22;6692;50.710;7.180;2023-05-07T04:16:50;14.70;99.90
13251;DHT22;6692;50.710;7.180;2023-05-07T04:18:50;14.70;99.90
13251;DHT22;6692;50.710;7.180;2023-05-07T04:20:51;14.70;99.90
13251;DHT22;6692;50.710;7.180;2023-05-07T04:22:52;14.70;99.90
13251;DHT22;6692;50.710;7.180;2023-05-07T04:24:52;14.80;99.90
13251;DHT22;6692;50.710;7.180;2023-05-07T04:26:53;14.80;99.90
13251;DHT22;6692;50.710;7.180;2023-05-07T04:28:54;14.80;99.90
13251;DHT22;6692;50.710;7.180;2023-05-07T04:30:54;14.80;99.90
13251;DHT22;6692;50.710;7.180;2023-05-07T04:32:55;14.80;99.90
13251;DHT22;6692;50.710;7.180;2023-05-07T04:34:56;14.80;99.90
13251;DHT22;6692;50.710;7.180;2023-05-07T04:36:58;14.90;99.90
13251;DHT22;6692;50.710;7.180;2023-05-07T04:38:58;14.80;99.90
13251;DHT22;6692;50.710;7.180;2023-05-07T04:41:06;14.90;99.90
13251;DHT22;6692;50.710;7.180;2023-05-07T04:43:07;14.90;99.90
13251;DHT22;6692;50.710;7.180;2023-05-07T04:45:09;14.90;99.90
13251;DHT22;6692;50.710;7.180;2023-05-07T04:47:09;14.90;99.90
13251;DHT22;6692;50.710;7.180;2023-05-07T04:49:10;15.00;99.90
13251;DHT22;6692;50.710;7.180;2023-05-07T04:51:11;15.00;99.90
13251;DHT22;6692;50.710;7.180;2023-05-07T04:53:12;15.00;99.90
13251;DHT22;6692;50.710;7.180;2023-05-07T04:55:13;15.00;99.90
13251;DHT22;6692;50.710;7.180;2023-05-07T04:57:14;15.10;99.90
13251;DHT22;6692;50.710;7.180;2023-05-07T04:59:15;15.00;99.90
13251;DHT22;6692;50.710;7.180;2023-05-07T05:01:15;15.10;99.90
13251;DHT22;6692;50.710;7.180;2023-05-07T05:03:16;15.10;99.90
13251;DHT22;6692;50.710;7.180;2023-05-07T05:05:17;15.10;99.90
13251;DHT22;6692;50.710;7.180;2023-05-07T05:07:18;15.10;99.90
13251;DHT22;6692;50.710;7.180;2023-05-07T05:09:18;15.20;99.90
13251;DHT22;6692;50.710;7.180;2023-05-07T05:11:19;15.30;99.90
13251;DHT22;6692;50.710;7.180;2023-05-07T05:13:20;15.30;99.90
13251;DHT22;6692;50.710;7.180;2023-05-07T05:15:20;15.40;99.90
13251;DHT22;6692;50.710;7.180;2023-05-07T05:17:21;15.40;99.90
13251;DHT22;6692;50.710;7.180;2023-05-07T05:19:23;15.50;99.90
13251;DHT22;6692;50.710;7.180;2023-05-07T05:21:23;15.40;99.90
13251;DHT22;6692;50.710;7.180;2023-05-07T05:23:24;15.50;99.90
13251;DHT22;6692;50.710;7.180;2023-05-07T05:25:25;15.60;99.90
13251;DHT22;6692;50.710;7.180;2023-05-07T05:27:25;15.60;99.90
13251;DHT22;6692;50.710;7.180;2023-05-07T05:29:26;15.70;99.90
13251;DHT22;6692;50.710;7.180;2023-05-07T05:31:27;15.70;99.90
13251;DHT22;6692;50.710;7.180;2023-05-07T05:33:27;15.80;99.90
13251;DHT22;6692;50.710;7.180;2023-05-07T05:35:29;15.90;99.90
13251;DHT22;6692;50.710;7.180;2023-05-07T05:37:29;15.90;99.90
13251;DHT22;6692;50.710;7.180;2023-05-07T05:39:31;15.90;99.90
13251;DHT22;6692;50.710;7.180;2023-05-07T05:41:31;15.90;99.90
13251;DHT22;6692;50.710;7.180;2023-05-07T05:43:33;16.00;99.90
13251;DHT22;6692;50.710;7.180;2023-05-07T05:45:34;16.00;99.90
13251;DHT22;6692;50.710;7.180;2023-05-07T05:47:37;16.10;99.90
13251;DHT22;6692;50.710;7.180;2023-05-07T05:49:36;16.10;99.90
13251;DHT22;6692;50.710;7.180;2023-05-07T05:51:37;16.20;99.90
13251;DHT22;6692;50.710;7.180;2023-05-07T05:53:39;16.20;99.90
13251;DHT22;6692;50.710;7.180;2023-05-07T05:55:39;16.20;99.90
13251;DHT22;6692;50.710;7.180;2023-05-07T05:57:40;16.20;99.90
13251;DHT22;6692;50.710;7.180;2023-05-07T05:59:40;16.20;99.90
13251;DHT22;6692;50.710;7.180;2023-05-07T06:01:41;16.30;99.90
13251;DHT22;6692;50.710;7.180;2023-05-07T06:03:42;16.30;99.90
13251;DHT22;6692;50.710;7.180;2023-05-07T06:05:42;16.30;99.90
13251;DHT22;6692;50.710;7.180;2023-05-07T06:07:43;16.30;99.90
13251;DHT22;6692;50.710;7.180;2023-05-07T06:09:44;16.30;99.90
13251;DHT22;6692;50.710;7.180;2023-05-07T06:11:45;16.30;99.90
13251;DHT22;6692;50.710;7.180;2023-05-07T06:13:45;16.30;99.90
13251;DHT22;6692;50.710;7.180;2023-05-07T06:15:47;16.50;99.90
13251;DHT22;6692;50.710;7.180;2023-05-07T06:17:47;16.40;99.90
13251;DHT22;6692;50.710;7.180;2023-05-07T06:19:48;16.50;99.90
13251;DHT22;6692;50.710;7.180;2023-05-07T06:21:49;16.60;99.90
13251;DHT22;6692;50.710;7.180;2023-05-07T06:23:50;16.60;99.90
13251;DHT22;6692;50.710;7.180;2023-05-07T06:25:51;16.70;99.90
13251;DHT22;6692;50.710;7.180;2023-05-07T06:27:51;16.80;99.90
13251;DHT22;6692;50.710;7.180;2023-05-07T06:29:52;16.80;99.90
13251;DHT22;6692;50.710;7.180;2023-05-07T06:31:53;16.80;99.90
13251;DHT22;6692;50.710;7.180;2023-05-07T06:33:54;16.80;99.90
13251;DHT22;6692;50.710;7.180;2023-05-07T06:35:55;16.80;99.90
13251;DHT22;6692;50.710;7.180;2023-05-07T06:37:56;16.90;99.90
13251;DHT22;6692;50.710;7.180;2023-05-07T06:39:56;16.90;99.90
13251;DHT22;6692;50.710;7.180;2023-05-07T06:41:57;17.00;99.90
13251;DHT22;6692;50.710;7.180;2023-05-07T06:43:57;17.00;99.90
13251;DHT22;6692;50.710;7.180;2023-05-07T06:45:58;17.10;99.90
13251;DHT22;6692;50.710;7.180;2023-05-07T06:47:59;17.10;99.90
13251;DHT22;6692;50.710;7.180;2023-05-07T06:49:59;17.10;99.90
13251;DHT22;6692;50.710;7.180;2023-05-07T06:52:00;17.20;99.90
13251;DHT22;6692;50.710;7.180;2023-05-07T06:54:01;17.20;99.90
13251;DHT22;6692;50.710;7.180;2023-05-07T06:56:01;17.30;99.90
13251;DHT22;6692;50.710;7.180;2023-05-07T06:58:02;17.30;99.90
13251;DHT22;6692;50.710;7.180;2023-05-07T07:00:04;17.30;99.90
13251;DHT22;6692;50.710;7.180;2023-05-07T07:02:06;17.30;99.90
13251;DHT22;6692;50.710;7.180;2023-05-07T07:04:07;17.30;99.90
13251;DHT22;6692;50.710;7.180;2023-05-07T07:06:09;17.40;99.90
13251;DHT22;6692;50.710;7.180;2023-05-07T07:08:09;17.40;99.90
13251;DHT22;6692;50.710;7.180;2023-05-07T07:10:10;17.50;99.90
13251;DHT22;6692;50.710;7.180;2023-05-07T07:12:11;17.60;99.90
13251;DHT22;6692;50.710;7.180;2023-05-07T07:14:13;17.70;99.90
13251;DHT22;6692;50.710;7.180;2023-05-07T07:16:13;17.70;99.90
13251;DHT22;6692;50.710;7.180;2023-05-07T07:18:14;17.80;99.90
13251;DHT22;6692;50.710;7.180;2023-05-07T07:20:15;17.90;99.90
13251;DHT22;6692;50.710;7.180;2023-05-07T07:22:16;18.00;99.90
13251;DHT22;6692;50.710;7.180;2023-05-07T07:24:16;18.00;99.90
13251;DHT22;6692;50.710;7.180;2023-05-07T07:26:17;18.10;99.90
13251;DHT22;6692;50.710;7.180;2023-05-07T07:28:17;18.10;99.90
13251;DHT22;6692;50.710;7.180;2023-05-07T07:30:19;18.10;99.90
13251;DHT22;6692;50.710;7.180;2023-05-07T07:32:19;18.10;99.90
13251;DHT22;6692;50.710;7.180;2023-05-07T07:34:20;18.10;99.90
13251;DHT22;6692;50.710;7.180;2023-05-07T07:36:21;18.10;99.90
13251;DHT22;6692;50.710;7.180;2023-05-07T07:38:21;18.10;99.90
13251;DHT22;6692;50.710;7.180;2023-05-07T07:40:22;18.10;99.90
13251;DHT22;6692;50.710;7.180;2023-05-07T07:42:23;18.10;99.90
13251;DHT22;6692;50.710;7.180;2023-05-07T07:44:23;18.10;99.90
13251;DHT22;6692;50.710;7.180;2023-05-07T07:46:24;18.10;99.90
13251;DHT22;6692;50.710;7.180;2023-05-07T07:48:25;18.10;99.90
13251;DHT22;6692;50.710;7.180;2023-05-07T07:50:25;18.10;99.90
13251;DHT22;6692;50.710;7.180;2023-05-07T07:52:26;18.10;99.90
13251;DHT22;6692;50.710;7.180;2023-05-07T07:54:27;18.20;99.90
13251;DHT22;6692;50.710;7.180;2023-05-07T07:56:27;18.20;99.90
13251;DHT22;6692;50.710;7.180;2023-05-07T07:58:28;18.30;99.90
13251;DHT22;6692;50.710;7.180;2023-05-07T08:00:29;18.30;99.90
13251;DHT22;6692;50.710;7.180;2023-05-07T08:02:29;18.40;99.90
13251;DHT22;6692;50.710;7.180;2023-05-07T08:04:30;18.50;99.90
13251;DHT22;6692;50.710;7.180;2023-05-07T08:06:31;18.60;99.90
13251;DHT22;6692;50.710;7.180;2023-05-07T08:08:32;18.60;99.90
13251;DHT22;6692;50.710;7.180;2023-05-07T08:10:33;18.70;99.90
13251;DHT22;6692;50.710;7.180;2023-05-07T08:12:34;18.70;99.90
13251;DHT22;6692;50.710;7.180;2023-05-07T08:14:36;18.80;99.90
13251;DHT22;6692;50.710;7.180;2023-05-07T08:16:36;18.80;99.90
13251;DHT22;6692;50.710;7.180;2023-05-07T08:18:37;18.90;99.90
13251;DHT22;6692;50.710;7.180;2023-05-07T08:20:38;18.90;99.90
13251;DHT22;6692;50.710;7.180;2023-05-07T08:22:39;19.00;99.90
13251;DHT22;6692;50.710;7.180;2023-05-07T08:24:40;19.00;99.90
13251;DHT22;6692;50.710;7.180;2023-05-07T08:26:40;19.10;99.90
13251;DHT22;6692;50.710;7.180;2023-05-07T08:28:41;19.10;99.90
13251;DHT22;6692;50.710;7.180;2023-05-07T08:30:42;19.20;99.90
13251;DHT22;6692;50.710;7.180;2023-05-07T08:32:42;19.20;99.90
13251;DHT22;6692;50.710;7.180;2023-05-07T08:34:44;19.30;99.90
13251;DHT22;6692;50.710;7.180;2023-05-07T08:36:44;19.40;99.90
13251;DHT22;6692;50.710;7.180;2023-05-07T08:38:45;19.40;99.90
13251;DHT22;6692;50.710;7.180;2023-05-07T08:40:46;19.40;99.90
13251;DHT22;6692;50.710;7.180;2023-05-07T08:42:48;19.50;99.90
13251;DHT22;6692;50.710;7.180;2023-05-07T08:44:48;19.50;99.90
13251;DHT22;6692;50.710;7.180;2023-05-07T08:46:49;19.60;99.90
13251;DHT22;6692;50.710;7.180;2023-05-07T08:48:50;19.60;99.90
13251;DHT22;6692;50.710;7.180;2023-05-07T08:50:50;19.60;99.90
13251;DHT22;6692;50.710;7.180;2023-05-07T08:52:51;19.60;99.90
13251;DHT22;6692;50.710;7.180;2023-05-07T08:54:51;19.70;99.90
13251;DHT22;6692;50.710;7.180;2023-05-07T08:56:52;19.70;99.90
13251;DHT22;6692;50.710;7.180;2023-05-07T08:58:53;19.80;99.90
13251;DHT22;6692;50.710;7.180;2023-05-07T09:00:53;19.80;99.90
13251;DHT22;6692;50.710;7.180;2023-05-07T09:02:55;19.70;99.90
13251;DHT22;6692;50.710;7.180;2023-05-07T09:04:55;19.70;99.90
13251;DHT22;6692;50.710;7.180;2023-05-07T09:06:56;19.70;99.90
13251;DHT22;6692;50.710;7.180;2023-05-07T09:08:57;19.70;99.90
13251;DHT22;6692;50.710;7.180;2023-05-07T09:10:57;19.70;99.90
13251;DHT22;6692;50.710;7.180;2023-05-07T09:12:58;19.70;99.90
13251;DHT22;6692;50.710;7.180;2023-05-07T09:14:59;19.80;99.90
13251;DHT22;6692;50.710;7.180;2023-05-07T09:17:00;19.80;99.90
13251;DHT22;6692;50.710;7.180;2023-05-07T09:19:01;19.80;99.90
13251;DHT22;6692;50.710;7.180;2023-05-07T09:21:01;19.90;99.90
13251;DHT22;6692;50.710;7.180;2023-05-07T09:23:02;20.00;99.90
13251;DHT22;6692;50.710;7.180;2023-05-07T09:25:04;20.00;99.90
13251;DHT22;6692;50.710;7.180;2023-05-07T09:27:05;20.10;99.90
13251;DHT22;6692;50.710;7.180;2023-05-07T09:29:05;20.10;99.90
13251;DHT22;6692;50.710;7.180;2023-05-07T09:31:06;20.20;99.90
13251;DHT22;6692;50.710;7.180;2023-05-07T09:33:06;20.20;99.90
13251;DHT22;6692;50.710;7.180;2023-05-07T09:35:14;20.30;99.90
13251;DHT22;6692;50.710;7.180;2023-05-07T09:37:08;20.40;99.90
13251;DHT22;6692;50.710;7.180;2023-05-07T09:39:09;20.40;99.90
13251;DHT22;6692;50.710;7.180;2023-05-07T09:41:11;20.50;99.90
13251;DHT22;6692;50.710;7.180;2023-05-07T09:43:11;20.60;99.90
13251;DHT22;6692;50.710;7.180;2023-05-07T09:45:11;20.80;99.90
13251;DHT22;6692;50.710;7.180;2023-05-07T09:47:12;20.80;99.90
13251;DHT22;6692;50.710;7.180;2023-05-07T09:49:18;20.90;99.90
13251;DHT22;6692;50.710;7.180;2023-05-07T09:51:22;20.90;99.90
13251;DHT22;6692;50.710;7.180;2023-05-07T09:53:22;21.00;99.90
13251;DHT22;6692;50.710;7.180;2023-05-07T09:55:23;21.00;99.90
13251;DHT22;6692;50.710;7.180;2023-05-07T09:57:24;21.00;99.90
13251;DHT22;6692;50.710;7.180;2023-05-07T09:59:24;21.10;99.90
13251;DHT22;6692;50.710;7.180;2023-05-07T10:01:26;21.10;99.90
13251;DHT22;6692;50.710;7.180;2023-05-07T10:03:27;21.10;99.90
13251;DHT22;6692;50.710;7.180;2023-05-07T10:05:27;21.10;99.90
13251;DHT22;6692;50.710;7.180;2023-05-07T10:07:28;21.10;99.90
13251;DHT22;6692;50.710;7.180;2023-05-07T10:09:29;21.10;99.90
13251;DHT22;6692;50.710;7.180;2023-05-07T10:11:29;21.00;99.90
13251;DHT22;6692;50.710;7.180;2023-05-07T10:13:30;20.90;99.90
13251;DHT22;6692;50.710;7.180;2023-05-07T10:15:31;20.90;99.90
13251;DHT22;6692;50.710;7.180;2023-05-07T10:17:34;21.00;99.90
13251;DHT22;6692;50.710;7.180;2023-05-07T10:19:33;21.00;99.90
13251;DHT22;6692;50.710;7.180;2023-05-07T10:21:35;21.10;99.90
13251;DHT22;6692;50.710;7.180;2023-05-07T10:23:34;21.10;99.90
13251;DHT22;6692;50.710;7.180;2023-05-07T10:25:35;21.10;99.90
13251;DHT22;6692;50.710;7.180;2023-05-07T10:27:35;21.20;99.90
13251;DHT22;6692;50.710;7.180;2023-05-07T10:29:45;21.20;99.90
13251;DHT22;6692;50.710;7.180;2023-05-07T10:31:52;21.20;99.90
13251;DHT22;6692;50.710;7.180;2023-05-07T10:33:51;21.30;99.90
13251;DHT22;6692;50.710;7.180;2023-05-07T10:35:51;21.40;99.90
13251;DHT22;6692;50.710;7.180;2023-05-07T10:37:52;21.40;99.90
13251;DHT22;6692;50.710;7.180;2023-05-07T10:39:52;21.40;99.90
13251;DHT22;6692;50.710;7.180;2023-05-07T10:41:53;21.40;99.90
13251;DHT22;6692;50.710;7.180;2023-05-07T10:43:54;21.40;99.90
13251;DHT22;6692;50.710;7.180;2023-05-07T10:46:09;21.50;99.90
13251;DHT22;6692;50.710;7.180;2023-05-07T10:48:12;21.50;99.90
13251;DHT22;6692;50.710;7.180;2023-05-07T10:50:27;21.70;99.90
13251;DHT22;6692;50.710;7.180;2023-05-07T10:52:27;21.90;99.90
13251;DHT22;6692;50.710;7.180;2023-05-07T10:54:28;22.00;99.90
13251;DHT22;6692;50.710;7.180;2023-05-07T10:56:29;22.00;99.90
13251;DHT22;6692;50.710;7.180;2023-05-07T10:58:29;22.10;99.90
13251;DHT22;6692;50.710;7.180;2023-05-07T11:09:18;22.20;99.90
13251;DHT22;6692;50.710;7.180;2023-05-07T11:11:19;22.20;99.90
13251;DHT22;6692;50.710;7.180;2023-05-07T11:13:40;22.20;99.90
13251;DHT22;6692;50.710;7.180;2023-05-07T11:15:35;22.20;99.90
13251;DHT22;6692;50.710;7.180;2023-05-07T11:17:35;22.30;99.90
13251;DHT22;6692;50.710;7.180;2023-05-07T11:21:48;22.40;99.90
13251;DHT22;6692;50.710;7.180;2023-05-07T11:23:56;22.40;99.90
13251;DHT22;6692;50.710;7.180;2023-05-07T11:25:59;22.40;99.90
13251;DHT22;6692;50.710;7.180;2023-05-07T11:28:05;22.30;99.90
13251;DHT22;6692;50.710;7.180;2023-05-07T11:30:05;22.30;99.90
13251;DHT22;6692;50.710;7.180;2023-05-07T11:32:06;22.30;99.90
13251;DHT22;6692;50.710;7.180;2023-05-07T11:34:07;22.30;99.90
13251;DHT22;6692;50.710;7.180;2023-05-07T11:36:07;22.20;99.90
13251;DHT22;6692;50.710;7.180;2023-05-07T11:38:08;22.20;99.90
13251;DHT22;6692;50.710;7.180;2023-05-07T11:40:09;22.20;99.90
13251;DHT22;6692;50.710;7.180;2023-05-07T11:44:24;22.20;99.90
13251;DHT22;6692;50.710;7.180;2023-05-07T11:46:26;22.20;99.90
13251;DHT22;6692;50.710;7.180;2023-05-07T11:48:26;22.30;99.90
13251;DHT22;6692;50.710;7.180;2023-05-07T11:50:26;22.20;99.90
13251;DHT22;6692;50.710;7.180;2023-05-07T11:52:27;22.20;99.90
13251;DHT22;6692;50.710;7.180;2023-05-07T11:54:34;22.20;99.90
13251;DHT22;6692;50.710;7.180;2023-05-07T11:56:28;22.20;99.90
13251;DHT22;6692;50.710;7.180;2023-05-07T11:58:29;22.20;99.90
13251;DHT22;6692;50.710;7.180;2023-05-07T12:00:30;22.10;99.90
13251;DHT22;6692;50.710;7.180;2023-05-07T12:02:30;22.10;99.90
13251;DHT22;6692;50.710;7.180;2023-05-07T12:04:31;22.20;99.90
13251;DHT22;6692;50.710;7.180;2023-05-07T12:06:35;22.20;99.90
13251;DHT22;6692;50.710;7.180;2023-05-07T12:08:32;22.20;99.90
13251;DHT22;6692;50.710;7.180;2023-05-07T12:10:33;22.20;99.90
13251;DHT22;6692;50.710;7.180;2023-05-07T12:12:38;22.20;99.90
13251;DHT22;6692;50.710;7.180;2023-05-07T12:14:39;22.30;99.90
13251;DHT22;6692;50.710;7.180;2023-05-07T12:16:40;22.40;99.90
13251;DHT22;6692;50.710;7.180;2023-05-07T12:18:40;22.50;99.90
13251;DHT22;6692;50.710;7.180;2023-05-07T12:20:41;22.50;99.90
13251;DHT22;6692;50.710;7.180;2023-05-07T12:22:42;22.50;99.90
13251;DHT22;6692;50.710;7.180;2023-05-07T12:24:46;22.50;99.90
13251;DHT22;6692;50.710;7.180;2023-05-07T12:26:47;22.50;99.90
13251;DHT22;6692;50.710;7.180;2023-05-07T12:28:47;22.50;99.90
13251;DHT22;6692;50.710;7.180;2023-05-07T12:30:48;22.50;99.90
13251;DHT22;6692;50.710;7.180;2023-05-07T12:32:52;22.50;99.90
13251;DHT22;6692;50.710;7.180;2023-05-07T12:34:50;22.60;99.90
13251;DHT22;6692;50.710;7.180;2023-05-07T12:36:50;22.70;99.90
13251;DHT22;6692;50.710;7.180;2023-05-07T12:38:51;22.90;99.90
13251;DHT22;6692;50.710;7.180;2023-05-07T12:40:54;23.10;99.90
13251;DHT22;6692;50.710;7.180;2023-05-07T12:42:54;23.40;99.90
13251;DHT22;6692;50.710;7.180;2023-05-07T12:44:55;23.70;99.90
13251;DHT22;6692;50.710;7.180;2023-05-07T12:46:55;24.10;99.90
13251;DHT22;6692;50.710;7.180;2023-05-07T12:48:56;24.30;99.90
13251;DHT22;6692;50.710;7.180;2023-05-07T12:50:58;25.10;99.90
13251;DHT22;6692;50.710;7.180;2023-05-07T12:52:59;25.60;99.90
13251;DHT22;6692;50.710;7.180;2023-05-07T12:55:05;25.50;99.90
13251;DHT22;6692;50.710;7.180;2023-05-07T12:57:05;26.10;99.90
13251;DHT22;6692;50.710;7.180;2023-05-07T12:59:06;26.90;99.90
13251;DHT22;6692;50.710;7.180;2023-05-07T13:01:07;26.80;99.90
13251;DHT22;6692;50.710;7.180;2023-05-07T13:03:08;27.30;98.80
13251;DHT22;6692;50.710;7.180;2023-05-07T13:05:09;27.20;98.70
13251;DHT22;6692;50.710;7.180;2023-05-07T13:07:09;27.40;98.20
13251;DHT22;6692;50.710;7.180;2023-05-07T13:09:10;27.60;97.70